Leyendecker II PSRC Data

Date Time Air Temperature Relative Humidity Dewpoint Heat Index Wind Speed Wind Dir. Rain Solar Radiation Soil Temperature
2m 2m 3m 3m 10cm
US/Mountain F % F F MPH deg in MJ/m^2 F
max avg avg
2021-06-11 00:05:00 65.2 38.9 39.5 65.2 0.0 2.1 0.8 279.7 287.1 0.00 0.0000000 74.8
2021-06-11 00:10:00 64.9 39.0 39.3 64.9 0.0 0.0 0.0 0.8 0.0 0.00 0.0000000 74.8
2021-06-11 00:15:00 64.4 44.3 42.2 64.4 1.3 1.7 0.4 39.8 54.4 0.00 0.0000000 74.7
2021-06-11 00:20:00 64.1 47.6 43.8 64.1 0.0 1.7 1.1 149.3 66.9 0.00 0.0000000 74.7
2021-06-11 00:25:00 63.8 45.5 42.3 63.8 0.0 0.0 0.0 236.3 0.0 0.00 0.0000000 74.7
2021-06-11 00:30:00 63.6 47.3 43.2 63.6 0.0 1.2 0.4 223.7 220.6 0.00 0.0000000 74.6
2021-06-11 00:35:00 63.5 42.8 40.5 63.5 0.0 0.0 0.0 278.3 0.0 0.00 0.0000000 74.6
2021-06-11 00:40:00 63.4 40.0 38.7 63.4 1.2 2.1 1.6 270.3 268.8 0.00 0.0000000 74.5
2021-06-11 00:45:00 63.3 38.2 37.4 63.3 1.0 1.3 1.2 257.8 274.0 0.00 0.0000000 74.5
2021-06-11 00:50:00 62.9 37.3 36.4 62.9 0.0 1.0 0.3 283.7 261.6 0.00 0.0000000 74.4
2021-06-11 00:55:00 62.7 39.8 37.9 62.7 0.0 1.0 0.3 299.1 290.4 0.00 0.0000000 74.4
2021-06-11 01:00:00 62.3 42.7 39.3 62.3 0.0 0.0 0.0 304.9 0.0 0.00 0.0000000 74.4
2021-06-11 01:05:00 61.8 43.4 39.3 61.8 1.0 1.0 0.0 165.0 165.0 0.00 0.0000000 74.4
2021-06-11 01:10:00 61.4 49.1 42.1 61.4 0.0 1.2 0.6 153.2 154.7 0.00 0.0000000 74.3
2021-06-11 01:15:00 61.0 47.9 41.1 61.0 0.0 0.8 0.0 314.0 316.3 0.00 0.0000000 74.3
2021-06-11 01:20:00 60.9 50.4 42.3 60.9 0.0 1.0 0.2 83.1 319.9 0.00 0.0000000 74.2
2021-06-11 01:25:00 60.6 55.3 44.5 60.6 1.2 3.0 1.9 122.5 108.2 0.00 0.0000000 74.2
2021-06-11 01:30:00 60.6 58.3 45.9 60.6 1.5 1.7 1.3 185.8 151.6 0.00 0.0000000 74.2
2021-06-11 01:35:00 60.7 56.9 45.3 60.7 0.0 1.5 1.2 185.3 197.9 0.00 0.0000000 74.1
2021-06-11 01:40:00 60.5 57.7 45.6 60.5 1.0 1.2 0.4 198.6 211.8 0.00 0.0000000 74.1
2021-06-11 01:45:00 60.8 59.2 46.5 60.8 0.0 1.2 0.9 197.1 181.3 0.00 0.0000000 74.0
2021-06-11 01:50:00 60.8 58.8 46.3 60.8 2.2 2.2 0.8 153.1 171.6 0.00 0.0000000 74.0
2021-06-11 01:55:00 60.9 60.1 47.0 60.9 1.5 2.4 1.6 147.6 185.8 0.00 0.0000000 74.0
2021-06-11 02:00:00 60.7 60.4 46.9 60.7 0.0 1.2 0.1 147.5 147.5 0.00 0.0000000 73.9
2021-06-11 02:05:00 60.2 55.7 44.3 60.2 2.1 2.1 0.2 287.4 283.3 0.00 0.0000000 73.9
2021-06-11 02:10:00 60.0 56.7 44.6 60.0 2.1 2.4 2.0 293.0 300.6 0.00 0.0000000 73.9
2021-06-11 02:15:00 60.0 54.1 43.3 60.0 2.2 2.6 2.0 297.6 302.2 0.00 0.0000000 73.8
2021-06-11 02:20:00 59.7 59.8 45.7 59.7 0.0 2.2 1.0 341.5 307.6 0.00 0.0000000 73.8
2021-06-11 02:25:00 59.4 57.2 44.2 59.4 0.0 1.5 0.8 261.8 320.9 0.00 0.0000000 73.8
2021-06-11 02:30:00 59.1 57.9 44.3 59.1 0.0 0.0 0.0 313.1 0.0 0.00 0.0000000 73.7
2021-06-11 02:35:00 58.6 65.6 47.2 58.6 1.7 1.9 0.5 163.2 149.9 0.00 0.0000000 73.7
2021-06-11 02:40:00 58.6 65.9 47.3 58.6 1.5 2.1 1.8 158.1 157.1 0.00 0.0000000 73.7
2021-06-11 02:45:00 58.9 66.1 47.6 58.9 1.7 2.1 1.8 178.1 168.4 0.00 0.0000000 73.6
2021-06-11 02:50:00 58.9 73.8 50.6 58.9 2.1 3.0 2.0 200.9 192.8 0.00 0.0000000 73.6
2021-06-11 02:55:00 58.9 60.9 45.4 58.9 2.6 3.1 2.3 280.9 270.2 0.00 0.0000000 73.6
2021-06-11 03:00:00 58.6 59.9 44.7 58.6 1.2 2.6 1.5 280.9 273.3 0.00 0.0000000 73.5
2021-06-11 03:05:00 58.5 57.4 43.5 58.5 1.2 1.5 1.1 316.2 298.6 0.00 0.0000000 73.5
2021-06-11 03:10:00 58.3 55.0 42.3 58.3 2.1 2.1 1.0 319.1 314.3 0.00 0.0000000 73.4
2021-06-11 03:15:00 58.1 61.7 45.0 58.1 2.4 2.4 1.8 308.0 311.3 0.00 0.0000000 73.4
2021-06-11 03:20:00 58.1 63.3 45.7 58.1 1.3 2.6 1.9 295.4 297.3 0.00 0.0000000 73.4
2021-06-11 03:25:00 57.9 65.4 46.4 57.9 1.2 2.1 1.6 301.2 301.9 0.00 0.0000000 73.3
2021-06-11 03:30:00 57.7 64.5 45.8 57.7 2.8 2.8 1.7 305.3 307.9 0.00 0.0000000 73.3
2021-06-11 03:35:00 57.9 69.8 48.1 57.9 3.8 4.2 3.7 300.7 305.6 0.00 0.0000000 73.3
2021-06-11 03:40:00 58.0 67.4 47.2 58.0 2.8 3.8 3.0 278.1 297.8 0.00 0.0000000 73.2
2021-06-11 03:45:00 57.8 66.7 46.9 57.8 0.0 2.6 1.6 311.3 291.4 0.00 0.0000000 73.2
2021-06-11 03:50:00 57.9 66.5 46.8 57.9 4.6 4.7 2.6 292.4 306.0 0.00 0.0000000 73.1
2021-06-11 03:55:00 58.3 69.4 48.3 58.3 6.2 6.9 5.7 276.1 302.4 0.00 0.0000000 73.1
2021-06-11 04:00:00 58.2 68.8 48.0 58.2 3.5 6.7 4.9 295.5 299.0 0.00 0.0000000 73.1
2021-06-11 04:05:00 58.7 65.9 47.3 58.7 3.0 4.6 3.7 309.2 297.7 0.00 0.0000000 73.1
2021-06-11 04:10:00 58.9 64.5 47.0 58.9 0.0 4.0 2.4 137.1 288.1 0.00 0.0000000 73.0
2021-06-11 04:15:00 58.5 68.2 48.1 58.5 1.5 1.7 0.7 57.8 101.6 0.00 0.0000000 73.0
2021-06-11 04:20:00 58.2 64.0 46.0 58.2 2.1 2.4 1.7 332.0 359.2 0.00 0.0000000 73.0
2021-06-11 04:25:00 57.8 62.3 45.0 57.8 1.2 3.0 2.0 280.7 285.9 0.00 0.0000000 72.9
2021-06-11 04:30:00 57.5 60.7 44.0 57.5 1.0 1.7 1.3 264.0 276.6 0.00 0.0000000 72.9
2021-06-11 04:35:00 57.4 59.7 43.5 57.4 1.7 2.2 1.5 254.1 269.5 0.00 0.0000000 72.9
2021-06-11 04:40:00 57.7 58.3 43.2 57.7 2.6 3.8 2.6 296.7 263.9 0.00 0.0000000 72.8
2021-06-11 04:45:00 58.8 52.0 41.2 58.8 2.8 3.8 2.8 262.6 270.4 0.00 0.0000000 72.8
2021-06-11 04:50:00 59.3 48.7 40.0 59.3 3.1 3.8 3.1 274.4 276.2 0.00 0.0000000 72.8
2021-06-11 04:55:00 58.3 57.5 43.3 58.3 4.4 4.4 3.6 314.1 312.2 0.00 0.0000000 72.7
2021-06-11 05:00:00 58.0 56.4 42.5 58.0 5.1 5.6 4.7 294.5 307.0 0.00 0.0000000 72.7
2021-06-11 05:05:00 57.9 59.2 43.7 57.9 4.0 4.9 3.9 302.7 302.3 0.00 0.0000000 72.7
2021-06-11 05:10:00 57.9 60.2 44.2 57.9 3.0 4.7 3.6 310.9 311.6 0.00 0.0000000 72.6
2021-06-11 05:15:00 57.6 60.4 44.0 57.6 1.7 2.6 1.9 327.1 337.5 0.00 0.0000000 72.6
2021-06-11 05:20:00 57.5 58.5 43.1 57.5 1.2 2.6 1.8 236.1 300.2 0.00 0.0000000 72.6
2021-06-11 05:25:00 57.2 56.8 42.0 57.2 0.0 1.3 0.3 280.0 239.1 0.00 0.0000000 72.6
2021-06-11 05:30:00 56.8 61.0 43.4 56.8 0.0 0.0 0.0 280.4 0.0 0.00 0.0000000 72.5
2021-06-11 05:35:00 56.2 60.9 42.9 56.2 0.0 0.0 0.0 342.6 0.0 0.00 0.0000000 72.5
2021-06-11 05:40:00 56.2 64.9 44.5 56.2 1.3 1.7 1.0 338.9 340.9 0.00 0.0000000 72.4
2021-06-11 05:45:00 56.3 66.2 45.2 56.3 0.0 1.5 1.1 40.9 354.0 0.00 0.0000000 72.4
2021-06-11 05:50:00 56.3 71.1 47.1 56.3 1.2 2.1 1.5 91.4 95.3 0.00 0.0000273 72.4
2021-06-11 05:55:00 56.1 71.5 47.0 56.1 1.2 1.3 1.1 112.3 104.2 0.00 0.0000058 72.4
2021-06-11 06:00:00 55.7 71.7 46.7 55.7 0.0 1.5 1.0 21.0 81.6 0.00 0.0003350 72.3
2021-06-11 06:05:00 55.7 71.7 46.7 55.7 1.3 1.5 0.6 336.6 335.3 0.00 0.0010816 72.3
2021-06-11 06:10:00 55.7 70.5 46.3 55.7 2.2 2.6 1.6 299.4 303.8 0.00 0.0020642 72.3
2021-06-11 06:15:00 55.8 67.5 45.2 55.8 2.2 2.6 2.2 299.0 298.2 0.00 0.0030687 72.2
2021-06-11 06:20:00 55.9 66.3 44.8 55.9 2.4 3.5 2.6 310.4 304.9 0.00 0.0041261 72.2
2021-06-11 06:25:00 56.0 63.6 43.8 56.0 3.5 3.5 3.1 291.9 307.7 0.00 0.0054171 72.2
2021-06-11 06:30:00 56.7 57.2 41.7 56.7 4.2 4.2 3.2 291.3 301.7 0.00 0.0066336 72.1
2021-06-11 06:35:00 57.5 54.6 41.3 57.5 2.4 3.7 2.5 268.2 297.1 0.00 0.0076178 72.1
2021-06-11 06:40:00 58.0 55.4 42.1 58.0 1.7 2.1 1.7 267.2 292.5 0.00 0.0084520 72.1
2021-06-11 06:45:00 58.8 49.4 39.9 58.8 2.6 3.1 2.2 299.2 280.7 0.00 0.0094115 72.1
2021-06-11 06:50:00 59.9 44.2 38.1 59.9 4.0 4.0 3.1 300.8 298.8 0.00 0.0110461 72.1
2021-06-11 06:55:00 61.0 43.5 38.6 61.0 2.8 4.6 3.5 315.1 298.4 0.00 0.0124649 72.0
2021-06-11 07:00:00 61.3 45.8 40.3 61.3 1.3 3.5 2.5 296.1 292.1 0.00 0.0127593 72.0
2021-06-11 07:05:00 61.6 43.1 39.0 61.6 2.1 3.0 2.0 243.5 278.5 0.00 0.0241557 72.0
2021-06-11 07:10:00 62.9 34.6 34.5 62.9 3.0 4.7 2.8 273.7 272.8 0.00 0.0361767 71.9
2021-06-11 07:15:00 64.0 38.4 38.2 64.0 2.2 4.7 3.5 219.8 258.3 0.00 0.0457323 71.9
2021-06-11 07:20:00 64.6 36.5 37.5 64.6 4.9 5.1 3.9 251.4 254.5 0.00 0.0594393 71.9
2021-06-11 07:25:00 65.2 37.2 38.4 65.2 4.2 5.6 4.1 237.3 260.4 0.00 0.0639263 71.9
2021-06-11 07:30:00 66.1 33.8 36.8 66.1 4.0 5.3 4.2 298.9 268.8 0.00 0.0685640 71.9
2021-06-11 07:35:00 67.4 27.9 33.0 67.4 5.3 5.6 4.7 260.6 278.6 0.00 0.0736442 71.9
2021-06-11 07:40:00 68.1 29.3 34.9 68.1 3.7 5.6 4.7 287.3 275.1 0.00 0.0784088 71.8
2021-06-11 07:45:00 69.0 26.6 33.2 69.0 5.1 6.7 3.7 303.7 296.4 0.00 0.0835795 71.8
2021-06-11 07:50:00 69.8 27.6 34.9 69.8 3.8 6.5 4.1 277.9 296.3 0.00 0.0883517 71.8
2021-06-11 07:55:00 70.2 29.2 36.6 70.2 3.8 6.3 4.6 282.7 284.0 0.00 0.0932931 71.7
2021-06-11 08:00:00 70.4 31.5 38.8 70.4 3.7 5.5 3.7 278.8 270.0 0.00 0.0984155 71.7
2021-06-11 08:05:00 70.8 27.3 35.5 70.8 4.7 5.8 3.9 290.2 280.0 0.00 0.1038121 71.7
2021-06-11 08:10:00 71.7 30.0 38.6 71.7 2.6 3.8 2.8 279.3 270.9 0.00 0.1091087 71.7
2021-06-11 08:15:00 72.4 26.9 36.5 72.4 2.4 4.0 3.2 280.9 279.3 0.00 0.1141461 71.6
2021-06-11 08:20:00 73.3 23.4 33.7 73.3 4.0 4.7 3.2 283.6 287.2 0.00 0.1197084 71.6
2021-06-11 08:25:00 74.2 23.4 34.4 74.2 3.3 5.8 4.4 263.4 294.5 0.00 0.1250600 71.6
2021-06-11 08:30:00 74.4 18.9 29.3 74.4 5.8 6.9 4.7 308.3 304.9 0.00 0.1307818 71.6
2021-06-11 08:35:00 74.8 25.3 36.9 74.8 3.5 6.9 4.9 275.6 302.5 0.00 0.1360662 71.6
2021-06-11 08:40:00 75.3 26.0 38.0 75.3 2.8 6.0 4.1 255.8 290.0 0.00 0.1414162 71.6
2021-06-11 08:45:00 75.5 26.6 38.8 75.5 3.1 5.5 3.9 269.6 281.6 0.00 0.1465574 71.5
2021-06-11 08:50:00 76.4 26.2 39.2 76.4 3.1 5.1 3.4 270.1 292.6 0.00 0.1519717 71.5
2021-06-11 08:55:00 76.9 22.5 35.8 76.9 3.3 5.3 3.3 318.7 282.3 0.00 0.1571788 71.5
2021-06-11 09:00:00 77.9 19.4 32.8 77.9 8.8 8.8 4.9 331.0 304.4 0.00 0.1624037 71.5
2021-06-11 09:05:00 78.2 21.1 35.2 78.2 3.8 8.8 5.3 312.6 303.1 0.00 0.1676149 71.5
2021-06-11 09:10:00 78.1 22.3 36.5 78.1 4.2 7.6 5.3 333.1 288.0 0.00 0.1730062 71.5
2021-06-11 09:15:00 78.6 24.4 39.2 78.6 4.2 6.2 3.7 255.0 266.5 0.00 0.1779371 71.5
2021-06-11 09:20:00 78.9 26.4 41.5 78.9 3.3 6.2 4.1 269.6 264.0 0.00 0.1832955 71.5
2021-06-11 09:25:00 80.0 24.9 40.9 80.0 4.6 5.3 3.9 306.2 276.9 0.00 0.1885816 71.5
2021-06-11 09:30:00 80.4 23.7 40.0 80.4 4.0 6.5 4.8 272.0 281.4 0.00 0.1933448 71.5
2021-06-11 09:35:00 80.9 22.7 39.3 80.9 3.7 6.0 4.7 243.6 274.3 0.00 0.1989743 71.5
2021-06-11 09:40:00 81.8 19.4 36.1 81.8 4.2 5.6 4.0 310.9 293.2 0.00 0.2040393 71.5
2021-06-11 09:45:00 82.8 19.7 37.2 82.8 4.2 6.3 4.2 309.9 285.7 0.00 0.2093456 71.5
2021-06-11 09:50:00 83.4 17.0 34.1 83.4 5.6 6.7 4.5 322.6 278.9 0.00 0.2158290 71.6
2021-06-11 09:55:00 84.0 21.4 40.4 84.0 3.1 6.2 4.5 217.3 281.1 0.00 0.2023285 71.6
2021-06-11 10:00:00 84.3 20.6 39.5 84.3 4.7 4.7 3.8 293.6 272.1 0.00 0.1974681 71.6
2021-06-11 10:05:00 84.5 18.2 36.6 84.5 5.8 5.8 3.6 283.1 246.6 0.00 0.2244783 71.6
2021-06-11 10:10:00 85.0 18.7 37.8 85.0 4.2 6.2 4.8 265.2 267.0 0.00 0.2335900 71.6
2021-06-11 10:15:00 85.9 20.8 41.3 85.9 3.3 7.1 4.2 273.2 265.8 0.00 0.2289595 71.6
2021-06-11 10:20:00 87.1 17.4 37.6 87.1 4.9 5.6 4.1 258.2 281.6 0.00 0.2363341 71.7
2021-06-11 10:25:00 87.2 16.7 36.6 87.2 3.8 6.7 4.4 262.1 262.3 0.00 0.2440515 71.7
2021-06-11 10:30:00 87.8 17.9 38.9 87.8 4.9 5.6 3.5 238.6 260.1 0.00 0.2495318 71.7
2021-06-11 10:35:00 88.4 15.4 35.5 88.4 4.4 4.9 3.5 223.4 260.8 0.00 0.2530763 71.8
2021-06-11 10:40:00 88.2 14.6 34.0 88.2 4.2 5.1 3.8 256.6 237.7 0.00 0.2563032 71.8
2021-06-11 10:45:00 89.7 11.8 30.0 89.7 2.2 7.4 3.9 324.6 302.3 0.00 0.2608239 71.9
2021-06-11 10:50:00 90.4 9.1 24.1 90.4 4.6 5.8 4.0 302.9 291.2 0.00 0.2647921 71.9
2021-06-11 10:55:00 91.1 8.9 24.0 91.1 3.0 4.6 3.5 265.4 275.7 0.00 0.2684869 71.9
2021-06-11 11:00:00 91.2 10.4 28.1 91.2 4.0 4.2 3.3 336.4 266.5 0.00 0.2717963 72.0
2021-06-11 11:05:00 91.9 7.8 21.6 91.9 4.0 4.7 3.3 277.9 310.0 0.00 0.2744471 72.0
2021-06-11 11:10:00 91.9 10.9 29.7 91.9 3.3 5.1 3.7 334.5 9.0 0.00 0.2787802 72.1
2021-06-11 11:15:00 91.9 8.4 23.5 91.9 2.2 4.6 3.1 327.2 20.4 0.00 0.2815060 72.1
2021-06-11 11:20:00 92.5 7.6 21.3 92.5 3.3 4.2 3.2 21.7 349.9 0.00 0.2853561 72.2
2021-06-11 11:25:00 92.8 7.5 21.5 92.8 3.1 3.8 2.8 330.5 2.5 0.00 0.2837036 72.2
2021-06-11 11:30:00 92.8 7.3 20.8 92.8 4.7 5.1 3.2 1.4 16.4 0.00 0.2905609 72.3
2021-06-11 11:35:00 93.6 7.6 22.4 93.6 1.9 4.0 3.1 318.1 334.2 0.00 0.2945788 72.3
2021-06-11 11:40:00 94.2 10.2 29.9 94.2 2.8 4.0 2.7 187.1 289.6 0.00 0.2970684 72.4
2021-06-11 11:45:00 93.7 10.0 28.9 93.7 1.3 4.7 2.9 258.4 252.1 0.00 0.2686831 72.5
2021-06-11 11:50:00 93.1 9.8 28.1 93.1 2.6 6.3 4.1 220.3 221.4 0.00 0.3017978 72.5
2021-06-11 11:55:00 93.8 12.7 35.0 93.8 3.7 4.4 3.4 235.4 248.9 0.00 0.3016358 72.6
2021-06-11 12:00:00 93.6 8.2 24.1 93.6 5.1 5.8 4.2 201.1 212.0 0.00 0.3047643 72.7
2021-06-11 12:05:00 94.2 6.2 17.7 94.2 3.0 4.7 3.2 266.5 234.4 0.00 0.3071779 72.7
2021-06-11 12:10:00 94.9 6.5 19.6 94.9 2.8 3.1 2.4 281.1 254.9 0.00 0.3085872 72.8
2021-06-11 12:15:00 95.8 9.2 28.6 95.8 2.1 3.3 2.2 48.1 87.7 0.00 0.3104746 72.9
2021-06-11 12:20:00 95.3 9.8 29.5 95.3 3.3 4.2 2.8 43.1 68.8 0.00 0.3139705 73.0
2021-06-11 12:25:00 95.2 9.7 29.4 95.2 5.1 6.5 5.0 40.6 359.1 0.00 0.3073664 73.0
2021-06-11 12:30:00 95.0 6.3 18.8 95.0 6.2 7.8 5.4 34.8 21.6 0.00 0.3166813 73.1
2021-06-11 12:35:00 95.2 10.7 31.7 95.2 6.5 7.2 5.8 39.7 8.2 0.00 0.3165661 73.2
2021-06-11 12:40:00 95.5 10.7 32.0 95.5 3.8 7.2 5.6 13.4 15.3 0.00 0.3170940 73.3
2021-06-11 12:45:00 95.8 9.8 29.9 95.8 4.0 7.4 5.6 33.8 5.2 0.00 0.3154818 73.4
2021-06-11 12:50:00 95.8 5.6 16.7 95.8 2.4 6.7 4.9 257.5 352.1 0.00 0.3177884 73.5
2021-06-11 12:55:00 96.1 6.6 20.6 96.1 6.7 9.0 5.6 342.2 18.2 0.00 0.3183115 73.5
2021-06-11 13:00:00 96.0 5.7 17.4 96.0 6.7 6.7 3.8 16.3 18.9 0.00 0.3190397 73.6
2021-06-11 13:05:00 96.3 7.0 22.2 96.3 1.3 6.9 4.3 39.1 30.2 0.00 0.3191966 73.7
2021-06-11 13:10:00 96.4 8.1 25.9 96.4 7.1 7.2 4.5 3.7 26.5 0.00 0.3201610 73.8
2021-06-11 13:15:00 96.5 10.0 31.0 96.5 5.8 7.4 6.2 100.3 10.5 0.00 0.3220502 73.9
2021-06-11 13:20:00 96.5 13.5 38.6 96.5 1.5 5.8 3.3 151.2 36.7 0.00 0.3207704 74.0
2021-06-11 13:25:00 97.3 7.9 25.8 97.3 5.8 6.3 3.6 95.9 126.5 0.00 0.3150651 74.1
2021-06-11 13:30:00 96.9 10.2 31.9 96.9 3.3 6.2 3.4 41.6 98.4 0.00 0.2940999 74.1
2021-06-11 13:35:00 96.8 6.2 19.6 96.8 2.1 6.0 3.5 145.1 102.0 0.00 0.2840298 74.4
2021-06-11 13:40:00 96.8 6.8 21.9 96.8 4.2 5.6 3.5 107.0 85.8 0.00 0.2980834 75.1
2021-06-11 13:45:00 96.8 7.0 22.5 96.8 3.5 6.3 4.5 155.3 123.2 0.00 0.3078551 75.6
2021-06-11 13:50:00 96.8 8.7 27.8 96.8 3.5 4.7 3.2 154.7 121.7 0.00 0.3030721 75.9
2021-06-11 13:55:00 97.1 6.3 20.4 97.1 3.5 5.8 4.3 208.6 161.7 0.00 0.3003873 76.1
2021-06-11 14:00:00 97.0 8.2 26.5 97.0 1.2 4.4 3.0 79.5 148.7 0.00 0.3135453 76.2
2021-06-11 14:05:00 97.3 8.8 28.4 97.3 3.3 6.7 3.3 100.7 102.8 0.00 0.3170578 76.3
2021-06-11 14:10:00 97.3 8.5 27.6 97.3 8.1 8.1 4.0 59.8 66.8 0.00 0.3154557 76.5
2021-06-11 14:15:00 97.7 8.1 26.7 97.7 6.7 8.7 6.3 343.6 19.2 0.00 0.3097485 76.6
2021-06-11 14:20:00 97.5 10.0 31.8 97.5 5.5 7.8 5.4 33.6 40.0 0.00 0.2895834 76.6
2021-06-11 14:25:00 97.7 10.3 32.7 97.7 5.8 7.2 5.4 37.3 28.4 0.00 0.3018131 76.7
2021-06-11 14:30:00 98.0 8.0 26.5 98.0 2.6 7.6 3.9 31.2 12.6 0.00 0.2976263 76.8
2021-06-11 14:35:00 98.0 6.2 20.7 98.0 6.3 8.7 5.9 25.9 10.0 0.00 0.3007657 76.8
2021-06-11 14:40:00 98.3 7.1 24.0 98.3 4.0 8.5 5.7 70.6 19.3 0.00 0.2987776 76.9
2021-06-11 14:45:00 98.4 5.7 19.1 98.4 7.2 7.8 4.8 28.6 5.6 0.00 0.2965795 76.9
2021-06-11 14:50:00 98.5 5.6 18.7 98.5 3.1 7.4 4.9 20.3 14.3 0.00 0.2936682 77.0
2021-06-11 14:55:00 98.5 10.2 33.1 98.5 6.5 6.9 5.2 341.1 21.2 0.00 0.2897998 77.0
2021-06-11 15:00:00 98.4 5.7 18.8 98.4 2.4 7.4 5.8 327.9 1.2 0.00 0.2864956 77.1
2021-06-11 15:05:00 98.5 8.9 29.6 98.5 6.2 7.8 5.1 4.6 10.7 0.00 0.2835656 77.1
2021-06-11 15:10:00 99.0 9.1 30.6 99.0 7.8 7.8 5.1 39.9 9.1 0.00 0.2809011 77.1
2021-06-11 15:15:00 99.2 8.3 28.4 99.2 6.0 7.8 5.9 345.8 33.4 0.00 0.2773552 77.1
2021-06-11 15:20:00 99.4 7.7 26.9 99.4 2.4 8.0 5.2 8.5 24.5 0.00 0.2669075 77.2
2021-06-11 15:25:00 100.0 6.3 22.2 100.0 5.1 5.5 3.8 319.1 345.8 0.00 0.2722863 77.2
2021-06-11 15:30:00 100.1 5.4 19.1 100.1 2.1 4.9 3.5 12.2 305.1 0.00 0.2618462 77.2
2021-06-11 15:35:00 99.5 7.0 24.6 99.5 4.0 5.3 3.3 117.4 75.9 0.00 0.2521494 77.3
2021-06-11 15:40:00 100.1 6.9 24.8 100.1 3.5 5.8 3.1 267.0 58.1 0.00 0.2578354 77.3
2021-06-11 15:45:00 100.4 6.0 21.8 100.4 4.0 6.7 5.2 310.7 300.9 0.00 0.2561000 77.3
2021-06-11 15:50:00 100.8 7.0 25.4 100.8 5.8 6.9 5.2 3.8 332.6 0.00 0.2477199 77.3
2021-06-11 15:55:00 100.0 8.1 28.5 100.0 7.1 8.0 6.2 15.0 29.0 0.00 0.2474047 77.4
2021-06-11 16:00:00 100.3 10.5 35.2 100.3 4.4 7.1 5.0 322.4 2.4 0.00 0.2431182 77.4
2021-06-11 16:05:00 100.7 5.9 21.3 100.7 3.1 4.7 3.3 313.7 319.3 0.00 0.2372254 77.5
2021-06-11 16:10:00 100.7 6.9 25.0 100.7 5.8 5.8 3.5 15.3 355.4 0.00 0.2224861 77.5
2021-06-11 16:15:00 100.1 8.2 28.9 100.1 4.9 6.5 4.7 45.7 28.1 0.00 0.2228221 77.5
2021-06-11 16:20:00 100.1 6.6 23.6 100.1 6.9 6.9 5.4 9.2 16.4 0.00 0.2235470 77.6
2021-06-11 16:25:00 100.6 9.0 31.6 100.6 5.3 6.2 3.5 13.2 14.4 0.00 0.2204187 77.6
2021-06-11 16:30:00 100.3 6.6 23.9 100.3 3.1 8.0 5.6 317.0 1.8 0.00 0.2099797 77.7
2021-06-11 16:35:00 100.6 7.4 26.6 100.6 3.3 4.0 2.4 332.4 351.3 0.00 0.1990903 77.7
2021-06-11 16:40:00 100.5 6.9 24.9 100.5 6.2 6.2 4.9 37.4 21.6 0.00 0.1966290 77.7
2021-06-11 16:45:00 100.3 6.7 24.1 100.3 4.2 6.9 5.5 2.1 35.1 0.00 0.2002116 77.8
2021-06-11 16:50:00 99.8 7.1 25.1 99.8 1.9 6.9 3.6 269.1 66.6 0.00 0.1963388 77.8
2021-06-11 16:55:00 101.2 7.4 27.3 101.2 3.1 5.3 2.9 227.9 241.0 0.00 0.1851429 77.9
2021-06-11 17:00:00 100.3 9.7 33.2 100.3 4.9 6.3 4.6 219.0 229.1 0.00 0.1754797 78.0
2021-06-11 17:05:00 100.2 12.6 39.7 100.2 5.3 7.8 4.8 218.0 236.5 0.00 0.1696655 78.0
2021-06-11 17:10:00 100.2 9.7 33.0 100.2 2.1 5.3 3.3 206.2 240.5 0.00 0.1667327 78.1
2021-06-11 17:15:00 99.7 8.2 28.5 99.7 2.6 6.2 3.9 208.5 220.3 0.00 0.1632076 78.1
2021-06-11 17:20:00 100.6 11.3 37.3 100.6 3.3 4.4 3.3 273.5 252.7 0.00 0.1617734 78.2
2021-06-11 17:25:00 100.9 9.7 33.6 100.9 2.4 3.8 2.8 219.7 257.0 0.00 0.1576888 78.3
2021-06-11 17:30:00 100.6 8.1 29.0 100.6 2.6 4.7 3.5 218.2 233.6 0.00 0.1527091 78.3
2021-06-11 17:35:00 100.1 8.4 29.3 100.1 5.3 5.8 3.6 204.8 212.6 0.00 0.1437019 78.4
2021-06-11 17:40:00 100.2 7.8 27.8 100.2 1.9 4.9 2.8 197.8 200.6 0.00 0.1410988 78.4
2021-06-11 17:45:00 100.7 5.5 19.7 100.7 3.0 3.3 2.0 41.7 267.6 0.00 0.1374547 78.5
2021-06-11 17:50:00 100.6 12.4 39.6 100.6 1.7 3.0 2.4 210.5 220.5 0.00 0.1282737 78.5
2021-06-11 17:55:00 99.9 11.0 36.0 99.9 3.1 4.7 3.6 201.3 223.3 0.00 0.1232518 78.6
2021-06-11 18:00:00 99.1 8.7 29.6 99.1 4.2 5.6 3.9 226.8 235.1 0.00 0.1204418 78.7
2021-06-11 18:05:00 99.4 7.5 26.1 99.4 2.8 4.7 3.1 262.8 249.8 0.00 0.1138256 78.7
2021-06-11 18:10:00 100.5 4.8 16.6 100.5 3.1 3.8 2.5 241.3 259.8 0.00 0.1092557 78.8
2021-06-11 18:15:00 100.5 8.2 29.0 100.5 4.6 5.5 3.9 260.0 256.9 0.00 0.1033099 78.9
2021-06-11 18:20:00 100.6 9.4 32.5 100.6 2.6 5.5 3.1 293.0 274.5 0.00 0.0973096 78.9
2021-06-11 18:25:00 100.1 9.1 31.4 100.1 2.6 5.1 3.3 285.5 269.6 0.00 0.0904901 79.0
2021-06-11 18:30:00 99.0 10.5 34.1 99.0 3.0 4.2 3.3 272.5 252.0 0.00 0.0893370 79.1
2021-06-11 18:35:00 97.7 10.4 32.8 97.7 2.6 4.2 2.9 220.7 226.9 0.00 0.0838657 79.1
2021-06-11 18:40:00 97.5 8.7 28.3 97.5 2.6 3.3 2.7 227.9 233.9 0.00 0.0790967 79.2
2021-06-11 18:45:00 97.6 11.3 34.9 97.6 2.2 3.3 2.6 228.3 227.5 0.00 0.0734629 79.3
2021-06-11 18:50:00 97.4 10.8 33.6 97.4 2.8 3.5 2.6 216.1 239.4 0.00 0.0679704 79.3
2021-06-11 18:55:00 96.7 12.6 37.1 96.7 3.5 4.9 3.6 227.2 221.8 0.00 0.0648934 79.4
2021-06-11 19:00:00 95.9 16.9 44.0 95.9 3.1 3.8 3.0 291.7 237.3 0.00 0.0602531 79.4
2021-06-11 19:05:00 96.0 13.0 37.2 96.0 2.6 4.0 2.9 243.8 259.6 0.00 0.0558379 79.5
2021-06-11 19:10:00 95.7 13.2 37.3 95.7 2.8 3.3 2.5 209.3 241.2 0.00 0.0519448 79.6
2021-06-11 19:15:00 95.4 11.2 32.9 95.4 3.3 3.3 2.5 247.3 244.2 0.00 0.0474026 79.6
2021-06-11 19:20:00 95.5 12.6 36.1 95.5 2.8 3.7 2.4 264.7 271.1 0.00 0.0428551 79.7
2021-06-11 19:25:00 95.0 13.5 37.4 95.0 1.7 2.4 2.0 270.6 264.6 0.00 0.0387043 79.7
2021-06-11 19:30:00 93.9 12.8 35.3 93.9 1.9 2.6 1.8 236.0 260.5 0.00 0.0340336 79.8
2021-06-11 19:35:00 93.5 12.3 33.9 93.5 2.1 3.1 2.1 230.0 244.8 0.00 0.0299635 79.8
2021-06-11 19:40:00 92.1 13.1 34.4 92.1 3.5 3.5 2.2 242.1 230.8 0.00 0.0254685 79.8
2021-06-11 19:45:00 89.7 20.7 44.2 89.7 2.6 3.1 2.2 187.0 198.9 0.00 0.0206700 79.9
2021-06-11 19:50:00 86.7 25.9 47.6 86.7 1.7 3.0 2.2 191.0 175.1 0.00 0.0124509 79.9
2021-06-11 19:55:00 85.4 27.9 48.5 85.4 2.6 2.6 1.9 198.6 182.0 0.00 0.0049407 80.0
2021-06-11 20:00:00 84.2 29.6 49.1 84.2 0.8 2.4 1.3 176.3 178.1 0.00 0.0036569 80.0
2021-06-11 20:05:00 83.7 30.6 49.5 83.7 0.0 1.2 0.2 232.2 183.0 0.00 0.0026076 80.0
2021-06-11 20:10:00 83.3 26.9 45.7 83.3 0.8 0.8 0.0 273.2 273.2 0.00 0.0017362 80.0
2021-06-11 20:15:00 82.7 27.2 45.5 82.7 0.0 0.8 0.1 301.8 273.6 0.00 0.0009234 80.1
2021-06-11 20:20:00 82.2 32.6 49.9 82.2 0.0 0.0 0.0 257.1 0.0 0.00 0.0001355 80.1
2021-06-11 20:25:00 81.5 24.8 42.1 81.5 0.0 0.0 0.0 246.4 0.0 0.00 0.0000000 80.2
2021-06-11 20:30:00 80.7 25.2 41.8 80.7 0.0 1.2 0.3 259.1 201.7 0.00 0.0000000 80.2
2021-06-11 20:35:00 80.0 28.0 44.0 80.0 0.0 1.2 0.4 258.3 259.9 0.00 0.0000000 80.2
2021-06-11 20:40:00 79.0 31.7 46.5 79.0 0.0 0.0 0.0 173.6 0.0 0.00 0.0000000 80.2
2021-06-11 20:45:00 78.3 27.1 41.7 78.3 0.0 0.0 0.0 263.8 0.0 0.00 0.0000000 80.2
2021-06-11 20:50:00 77.6 29.9 43.7 77.6 0.0 0.0 0.0 290.9 0.0 0.00 0.0000000 80.2
2021-06-11 20:55:00 76.7 32.5 45.1 76.7 0.0 0.0 0.0 290.2 0.0 0.00 0.0000000 80.3
2021-06-11 21:00:00 75.8 32.9 44.6 75.8 0.0 0.0 0.0 290.0 0.0 0.00 0.0000000 80.3
2021-06-11 21:05:00 75.4 34.7 45.6 75.4 0.0 1.9 0.7 294.5 294.2 0.00 0.0000000 80.3
2021-06-11 21:10:00 75.2 36.7 46.9 75.2 0.8 1.3 0.9 263.8 280.3 0.00 0.0000000 80.3
2021-06-11 21:15:00 74.9 36.3 46.3 74.9 0.0 1.0 0.5 269.4 252.1 0.00 0.0000000 80.3
2021-06-11 21:20:00 74.5 37.7 47.0 74.5 1.9 1.9 0.5 281.5 282.0 0.00 0.0000000 80.3
2021-06-11 21:25:00 74.2 39.8 48.2 74.2 1.9 2.2 1.8 281.4 291.5 0.00 0.0000000 80.2
2021-06-11 21:30:00 74.0 40.5 48.5 74.0 1.5 2.2 1.7 292.6 277.4 0.00 0.0000000 80.3
2021-06-11 21:35:00 73.6 41.2 48.6 73.6 1.2 1.7 1.3 301.0 282.3 0.00 0.0000000 80.3
2021-06-11 21:40:00 73.3 44.4 50.3 73.3 1.0 1.3 1.1 244.4 287.6 0.00 0.0000000 80.3
2021-06-11 21:45:00 72.7 47.0 51.3 72.7 0.0 1.0 0.2 316.8 229.1 0.00 0.0000000 80.2
2021-06-11 21:50:00 71.4 51.5 52.6 71.4 3.3 4.9 3.2 145.7 155.6 0.00 0.0000000 80.2
2021-06-11 21:55:00 70.8 54.2 53.5 70.8 0.0 2.8 1.5 24.8 99.8 0.00 0.0000000 80.2
2021-06-11 22:00:00 70.7 55.1 53.7 70.7 2.6 3.3 2.4 199.7 152.7 0.00 0.0000000 80.2
2021-06-11 22:05:00 71.3 48.5 50.9 71.3 2.8 2.8 1.9 289.3 248.3 0.00 0.0000000 80.2
2021-06-11 22:10:00 71.1 48.2 50.5 71.1 1.5 3.0 1.6 262.5 304.3 0.00 0.0000000 80.2
2021-06-11 22:15:00 71.0 45.5 48.9 71.0 1.7 1.9 1.4 180.4 218.0 0.00 0.0000000 80.1
2021-06-11 22:20:00 71.0 45.9 49.1 71.0 0.0 1.7 1.3 204.5 184.2 0.00 0.0000000 80.1
2021-06-11 22:25:00 71.0 46.8 49.6 71.0 1.3 1.7 0.9 176.7 188.5 0.00 0.0000000 80.1
2021-06-11 22:30:00 70.6 54.2 53.3 70.6 0.0 2.2 1.0 141.4 131.0 0.00 0.0000000 80.1
2021-06-11 22:35:00 70.1 55.5 53.5 70.1 0.0 1.0 0.2 8.7 149.6 0.00 0.0000000 80.1
2021-06-11 22:40:00 70.0 50.3 50.6 70.0 1.5 2.2 1.0 241.7 266.9 0.00 0.0000000 80.0
2021-06-11 22:45:00 69.8 51.4 51.0 69.8 1.2 2.8 1.8 198.6 185.5 0.00 0.0000000 80.0
2021-06-11 22:50:00 69.2 53.3 51.5 69.2 0.8 1.7 0.5 248.5 208.7 0.00 0.0000000 79.9
2021-06-11 22:55:00 68.8 51.2 50.0 68.8 1.7 2.1 1.6 277.8 304.3 0.00 0.0000000 79.9
2021-06-11 23:00:00 68.4 51.7 49.9 68.4 0.8 2.2 1.4 254.6 279.9 0.00 0.0000000 79.9
2021-06-11 23:05:00 68.2 55.5 51.7 68.2 0.0 0.8 0.1 237.7 244.3 0.00 0.0000000 79.8
2021-06-11 23:10:00 67.7 52.1 49.5 67.7 0.0 1.0 0.3 322.8 278.8 0.00 0.0000000 79.8
2021-06-11 23:15:00 67.6 51.7 49.2 67.6 1.9 2.6 1.7 236.6 307.4 0.00 0.0000000 79.8
2021-06-11 23:20:00 67.4 56.1 51.2 67.4 1.2 1.7 1.2 287.3 229.1 0.00 0.0000000 79.8
2021-06-11 23:25:00 67.3 55.1 50.6 67.3 0.0 1.2 0.1 283.7 290.6 0.00 0.0000000 79.7
2021-06-11 23:30:00 66.9 56.2 50.8 66.9 1.7 1.9 0.6 216.3 254.1 0.00 0.0000000 79.6
2021-06-11 23:35:00 66.2 65.0 54.1 66.2 1.9 3.0 2.2 172.9 190.4 0.00 0.0000000 79.6
2021-06-11 23:40:00 65.6 68.7 55.0 65.6 0.0 1.9 0.7 162.6 177.2 0.00 0.0000000 79.6
2021-06-11 23:45:00 65.2 65.3 53.3 65.2 0.0 0.0 0.0 286.0 0.0 0.00 0.0000000 79.6
2021-06-11 23:50:00 65.3 56.2 49.3 65.3 1.5 2.2 1.6 319.1 306.9 0.00 0.0000000 79.5
2021-06-11 23:55:00 65.4 57.0 49.8 65.4 0.0 1.7 0.6 306.1 314.2 0.00 0.0000000 79.4
2021-06-12 00:00:00 65.1 59.6 50.7 65.1 0.0 0.0 0.0 310.1 0.0 0.00 0.0000000 79.4

Data is courtesy of the NM Climate Center. DO NOT USE IN LEGAL PROCEEDINGS.